Time;durP1;ratioP1;P1;durP2;ratioP2;P2;SDS_P1;SDS_P2;PMS_P1;PMS_P2;Temp;Humidity;BMP_temperature;BMP_pressure;BME280_temperature;BME280_humidity;BME280_pressure;Samples;Min_cycle;Max_cycle;Signal;HPM_P1;HPM_P2
2022/05/31 00:01:59;;;;;;;2.15;1.70;;;20.90;45.10;;;;;;5093862;28;20520;-61
2022/05/31 00:04:26;;;;;;;2.35;1.58;;;20.90;45.10;;;;;;5094981;28;20023;-61
2022/05/31 00:06:52;;;;;;;2.30;1.55;;;20.90;45.10;;;;;;5096989;28;20016;-61
2022/05/31 00:09:18;;;;;;;3.63;1.98;;;20.90;45.10;;;;;;5095742;28;20494;-61
2022/05/31 00:11:44;;;;;;;2.50;1.67;;;20.90;45.10;;;;;;5095458;28;20040;-61
2022/05/31 00:14:11;;;;;;;2.30;1.40;;;20.90;45.10;;;;;;5094002;28;20059;-61
2022/05/31 00:16:37;;;;;;;2.53;1.65;;;20.90;45.10;;;;;;5093566;28;20392;-61
2022/05/31 00:19:04;;;;;;;1.60;1.30;;;20.90;45.10;;;;;;5093314;28;20023;-61
2022/05/31 00:21:43;;;;;;;1.92;1.50;;;20.90;45.20;;;;;;5092330;28;20008;-62
2022/05/31 00:24:11;;;;;;;3.67;1.77;;;20.90;45.20;;;;;;5092974;28;20044;-61
2022/05/31 00:26:38;;;;;;;2.83;1.75;;;20.90;45.10;;;;;;5093173;28;20016;-62
2022/05/31 00:29:04;;;;;;;2.30;1.40;;;20.90;45.20;;;;;;5093571;28;20012;-62
2022/05/31 00:31:29;;;;;;;2.60;1.60;;;20.90;45.20;;;;;;5093706;28;20494;-62
2022/05/31 00:33:55;;;;;;;3.00;1.90;;;20.90;45.20;;;;;;5093354;28;20465;-62
2022/05/31 00:36:21;;;;;;;2.65;1.60;;;20.90;45.20;;;;;;5093146;28;20012;-61
2022/05/31 00:38:47;;;;;;;2.08;1.58;;;20.90;45.20;;;;;;5093841;28;20033;-61
2022/05/31 00:41:24;;;;;;;2.00;1.40;;;20.90;45.20;;;;;;5093118;28;20015;-61
2022/05/31 00:44:09;;;;;;;3.00;1.70;;;20.90;45.20;;;;;;5094626;28;20020;-61
2022/05/31 00:46:45;;;;;;;1.73;1.50;;;20.90;45.20;;;;;;5094204;28;20020;-61
2022/05/31 00:49:13;;;;;;;1.55;1.33;;;20.90;45.20;;;;;;5093695;28;20474;-61
2022/05/31 00:51:44;;;;;;;3.47;1.38;;;20.90;45.30;;;;;;5092143;28;20070;-61
2022/05/31 00:54:15;;;;;;;2.28;1.40;;;20.90;45.30;;;;;;5093006;28;20112;-61
2022/05/31 00:56:41;;;;;;;2.47;1.40;;;20.80;45.20;;;;;;5079512;28;20017;-61
2022/05/31 00:59:19;;;;;;;2.65;1.70;;;20.80;45.20;;;;;;5096044;28;20028;-61
2022/05/31 01:01:51;;;;;;;3.80;1.75;;;20.80;45.20;;;;;;5096858;28;20008;-61
2022/05/31 01:04:17;;;;;;;;;;;20.90;45.30;;;;;;5097367;28;20005;-61
2022/05/31 01:06:43;;;;;;;3.22;1.65;;;20.90;45.30;;;;;;5097319;28;19908;-61
2022/05/31 01:09:09;;;;;;;4.13;1.92;;;20.80;45.30;;;;;;5095825;28;20391;-61
2022/05/31 01:11:39;;;;;;;2.10;1.70;;;20.80;45.30;;;;;;5062191;28;20115;-61
2022/05/31 01:14:05;;;;;;;2.33;1.75;;;20.80;45.40;;;;;;5095985;28;20044;-61
2022/05/31 01:16:31;;;;;;;2.38;1.60;;;20.80;45.40;;;;;;5095695;28;20048;-61
2022/05/31 01:18:57;;;;;;;2.00;1.80;;;20.80;45.40;;;;;;5096790;28;20015;-61
2022/05/31 01:21:23;;;;;;;3.20;1.58;;;20.80;45.40;;;;;;5097038;28;20024;-61
2022/05/31 01:23:57;;;;;;;2.95;1.73;;;20.80;45.30;;;;;;5095273;28;20127;-61
2022/05/31 01:26:27;;;;;;;2.20;1.60;;;20.80;45.30;;;;;;5095695;28;20091;-61
2022/05/31 01:29:06;;;;;;;3.65;1.50;;;20.80;45.40;;;;;;5095629;28;20012;-61
2022/05/31 01:31:38;;;;;;;3.38;1.73;;;20.80;45.40;;;;;;5095567;28;20051;-61
2022/05/31 01:34:14;;;;;;;4.13;1.80;;;20.80;45.40;;;;;;5095382;28;20651;-61
2022/05/31 01:36:55;;;;;;;3.70;1.80;;;20.80;45.40;;;;;;5096251;28;20008;-61
2022/05/31 01:39:38;;;;;;;2.60;1.80;;;20.80;45.40;;;;;;5096370;28;20008;-61
2022/05/31 01:42:14;;;;;;;3.28;1.65;;;20.80;45.50;;;;;;5096647;28;20069;-61
2022/05/31 01:44:43;;;;;;;2.30;1.75;;;20.80;45.50;;;;;;5096328;28;20023;-61
2022/05/31 01:47:09;;;;;;;3.08;1.63;;;20.80;45.50;;;;;;5096237;28;20024;-61
2022/05/31 01:49:37;;;;;;;2.45;1.65;;;20.80;46.10;;;;;;5096250;28;20020;-61
2022/05/31 01:52:04;;;;;;;1.90;1.30;;;20.80;45.50;;;;;;5095416;28;20023;-62
2022/05/31 01:54:30;;;;;;;2.90;1.52;;;20.70;45.50;;;;;;5096319;28;20020;-61
2022/05/31 01:56:59;;;;;;;2.13;1.60;;;20.70;45.50;;;;;;5095990;28;20368;-61
2022/05/31 01:59:26;;;;;;;1.88;1.50;;;20.80;45.50;;;;;;5096267;28;20008;-61
2022/05/31 02:01:54;;;;;;;3.00;1.85;;;20.70;45.50;;;;;;5094976;28;20026;-61
2022/05/31 02:04:19;;;;;;;2.85;2.00;;;20.70;45.50;;;;;;5096174;28;20044;-61
2022/05/31 02:06:46;;;;;;;2.00;1.80;;;20.70;45.50;;;;;;5094973;28;20020;-61
2022/05/31 02:09:14;;;;;;;3.38;1.52;;;20.70;45.50;;;;;;5095757;28;20478;-61
2022/05/31 02:11:39;;;;;;;3.42;1.70;;;20.70;45.50;;;;;;5095957;28;20081;-61
2022/05/31 02:14:06;;;;;;;2.83;1.70;;;20.70;45.50;;;;;;5095964;28;20031;-61
2022/05/31 02:16:32;;;;;;;2.15;1.60;;;20.70;45.60;;;;;;5094479;28;20013;-61
2022/05/31 02:19:18;;;;;;;2.67;1.73;;;20.70;45.50;;;;;;5095596;28;20062;-61
2022/05/31 02:21:43;;;;;;;2.40;1.70;;;20.70;45.50;;;;;;5095577;28;20016;-61
2022/05/31 02:24:11;;;;;;;2.78;1.77;;;20.70;45.60;;;;;;5095266;28;20035;-61
2022/05/31 02:26:37;;;;;;;1.63;1.48;;;20.70;45.60;;;;;;5094251;28;20021;-61
2022/05/31 02:29:03;;;;;;;2.88;1.90;;;20.70;45.60;;;;;;5094147;28;20031;-61
2022/05/31 02:31:29;;;;;;;2.35;1.65;;;20.70;45.60;;;;;;5095713;28;20077;-61
2022/05/31 02:33:55;;;;;;;2.58;1.80;;;20.70;45.60;;;;;;5095680;28;20174;-61
2022/05/31 02:36:22;;;;;;;2.80;1.65;;;20.70;45.70;;;;;;5095813;28;20076;-61
2022/05/31 02:38:47;;;;;;;3.13;1.52;;;20.70;45.60;;;;;;5095512;28;20099;-61
2022/05/31 02:41:14;;;;;;;2.08;1.50;;;20.70;45.60;;;;;;5095279;28;20027;-61
2022/05/31 02:43:40;;;;;;;2.28;1.65;;;20.70;45.60;;;;;;5095253;28;20016;-61
2022/05/31 02:46:06;;;;;;;2.67;1.58;;;20.70;45.60;;;;;;5095837;28;20016;-61
2022/05/31 02:48:34;;;;;;;2.42;1.63;;;20.70;45.60;;;;;;5095430;28;20004;-61
2022/05/31 02:51:00;;;;;;;2.25;1.60;;;20.60;45.60;;;;;;5095298;28;20008;-61
2022/05/31 02:53:29;;;;;;;3.67;1.70;;;20.70;45.70;;;;;;5096165;28;20019;-61
2022/05/31 02:55:56;;;;;;;2.47;1.40;;;20.70;45.70;;;;;;5095421;28;20063;-61
2022/05/31 02:58:21;;;;;;;2.03;1.60;;;20.60;45.60;;;;;;5095100;28;20008;-61
2022/05/31 03:00:47;;;;;;;3.25;1.90;;;20.60;45.70;;;;;;5093840;28;20020;-61
2022/05/31 03:03:13;;;;;;;2.00;1.50;;;20.60;45.70;;;;;;5076712;28;20016;-61
2022/05/31 03:05:39;;;;;;;1.83;1.65;;;20.60;45.70;;;;;;5094965;28;20028;-61
2022/05/31 03:08:05;;;;;;;2.28;1.60;;;20.60;45.70;;;;;;5094477;28;20043;-61
2022/05/31 03:10:34;;;;;;;2.22;1.70;;;20.60;45.70;;;;;;5094746;28;20043;-61
2022/05/31 03:13:01;;;;;;;2.03;1.60;;;20.60;45.70;;;;;;5094381;28;20039;-61
2022/05/31 03:15:29;;;;;;;3.38;1.73;;;20.60;45.70;;;;;;5093345;28;20024;-61
2022/05/31 03:18:01;;;;;;;2.65;1.40;;;20.60;45.70;;;;;;5094213;28;20020;-61
2022/05/31 03:20:33;;;;;;;2.13;1.52;;;20.60;45.70;;;;;;5094501;28;20020;-61
2022/05/31 03:23:08;;;;;;;1.67;1.35;;;20.60;45.70;;;;;;5094213;28;20040;-61
2022/05/31 03:25:34;;;;;;;2.08;1.60;;;20.60;45.70;;;;;;5094482;28;20051;-61
2022/05/31 03:28:01;;;;;;;2.60;1.50;;;20.60;45.70;;;;;;5094400;28;20016;-61
2022/05/31 03:30:28;;;;;;;1.80;1.58;;;20.60;45.70;;;;;;5093375;28;20016;-61
2022/05/31 03:32:55;;;;;;;1.73;1.38;;;20.60;45.70;;;;;;5092906;28;20471;-61
2022/05/31 03:35:23;;;;;;;2.30;1.52;;;20.60;45.70;;;;;;5094249;28;20107;-61
2022/05/31 03:37:49;;;;;;;2.42;1.70;;;20.60;45.70;;;;;;5092738;28;20030;-61
2022/05/31 03:40:56;;;;;;;3.83;1.85;;;20.60;45.70;;;;;;5092810;28;20012;-61
2022/05/31 03:43:01;;;;;;;1.65;1.50;;;20.60;45.70;;;;;;5093859;28;20076;-61
2022/05/31 03:45:37;;;;;;;2.25;1.48;;;20.60;45.70;;;;;;5094222;28;20031;-61
2022/05/31 03:48:03;;;;;;;3.65;1.95;;;20.60;45.70;;;;;;5094063;28;20103;-61
2022/05/31 03:50:29;;;;;;;2.03;1.55;;;20.60;45.70;;;;;;5093915;28;20568;-61
2022/05/31 03:52:55;;;;;;;2.08;1.52;;;20.60;45.70;;;;;;5092718;28;20031;-61
2022/05/31 03:55:20;;;;;;;1.88;1.48;;;20.60;45.70;;;;;;5093553;28;20024;-61
2022/05/31 03:57:47;;;;;;;2.08;1.48;;;20.60;45.80;;;;;;5092737;28;20073;-61
2022/05/31 04:00:13;;;;;;;2.65;1.70;;;20.60;45.70;;;;;;5093945;28;20012;-61
2022/05/31 04:02:39;;;;;;;2.63;1.92;;;20.60;45.80;;;;;;5093547;28;20008;-61
2022/05/31 04:05:06;;;;;;;4.13;1.35;;;20.60;45.80;;;;;;5092214;28;20014;-61
2022/05/31 04:07:32;;;;;;;1.77;1.30;;;20.60;45.80;;;;;;5093810;28;20509;-60
2022/05/31 04:10:01;;;;;;;2.72;1.95;;;20.60;45.70;;;;;;5092920;28;20028;-60
2022/05/31 04:12:26;;;;;;;2.25;1.75;;;20.50;45.70;;;;;;5093054;28;20036;-60
2022/05/31 04:14:55;;;;;;;2.40;1.50;;;20.60;45.80;;;;;;5093945;28;20060;-61
2022/05/31 04:17:21;;;;;;;2.38;1.70;;;20.60;45.80;;;;;;5094023;28;20030;-61
2022/05/31 04:19:47;;;;;;;1.98;1.77;;;20.60;45.70;;;;;;5095246;28;20017;-61
2022/05/31 04:22:14;;;;;;;3.25;1.90;;;20.60;45.80;;;;;;5094772;28;20063;-61
2022/05/31 04:24:40;;;;;;;2.30;1.67;;;20.60;45.70;;;;;;5094310;28;20028;-61
2022/05/31 04:27:06;;;;;;;2.00;1.52;;;20.60;45.70;;;;;;5093597;28;20039;-61
2022/05/31 04:29:33;;;;;;;1.67;1.35;;;20.60;45.80;;;;;;5092989;28;20436;-61
2022/05/31 04:32:01;;;;;;;3.03;1.52;;;20.60;45.70;;;;;;5093477;28;20024;-61
2022/05/31 04:34:27;;;;;;;2.08;1.60;;;20.50;45.70;;;;;;5092034;28;20089;-61
2022/05/31 04:36:53;;;;;;;4.53;1.80;;;20.60;45.70;;;;;;5093043;28;20016;-61
2022/05/31 04:39:19;;;;;;;2.97;1.65;;;20.60;45.70;;;;;;5092286;28;20023;-61
2022/05/31 04:41:46;;;;;;;2.45;1.60;;;20.60;45.70;;;;;;5093239;28;20017;-61
2022/05/31 04:44:11;;;;;;;3.00;1.60;;;20.60;45.70;;;;;;5093339;28;20032;-61
2022/05/31 04:46:38;;;;;;;1.67;1.40;;;20.60;45.70;;;;;;5093021;28;20016;-61
2022/05/31 04:49:05;;;;;;;2.53;1.35;;;20.60;45.70;;;;;;5093399;28;20012;-61
2022/05/31 04:51:32;;;;;;;2.13;1.42;;;20.50;45.70;;;;;;5092404;28;20095;-61
2022/05/31 04:54:00;;;;;;;2.15;1.48;;;20.50;45.70;;;;;;5093206;28;20474;-61
2022/05/31 04:56:27;;;;;;;2.38;1.77;;;20.60;45.70;;;;;;5093459;28;20101;-61
2022/05/31 04:58:53;;;;;;;2.13;1.70;;;20.60;45.70;;;;;;5093008;28;20020;-61
2022/05/31 05:01:19;;;;;;;2.65;1.55;;;20.50;45.60;;;;;;5093161;28;20016;-61
2022/05/31 05:03:45;;;;;;;2.45;1.60;;;20.50;45.60;;;;;;5091664;28;20012;-61
2022/05/31 05:06:12;;;;;;;2.40;1.60;;;20.50;45.60;;;;;;5093210;28;20463;-61
2022/05/31 05:08:39;;;;;;;2.20;1.20;;;20.50;45.60;;;;;;5092825;28;20020;-61
2022/05/31 05:11:06;;;;;;;2.55;1.55;;;20.50;45.70;;;;;;5093038;28;20008;-61
2022/05/31 05:13:33;;;;;;;2.53;1.60;;;20.60;45.70;;;;;;5093339;28;20355;-61
2022/05/31 05:16:00;;;;;;;1.95;1.75;;;20.50;45.70;;;;;;5091368;28;20028;-61
2022/05/31 05:18:26;;;;;;;2.58;1.65;;;20.50;45.60;;;;;;5092171;28;20020;-61
2022/05/31 05:20:51;;;;;;;3.00;1.50;;;20.60;45.70;;;;;;5092328;28;20012;-61
2022/05/31 05:23:18;;;;;;;1.60;1.48;;;20.60;45.70;;;;;;5093151;28;20028;-62
2022/05/31 05:25:51;;;;;;;2.67;1.42;;;20.60;45.70;;;;;;5075075;28;20020;-61
2022/05/31 05:31:01;;;;;;;2.65;1.55;;;20.50;45.60;;;;;;5092455;28;20031;-61
2022/05/31 05:33:28;;;;;;;2.40;1.58;;;20.50;45.60;;;;;;5092265;28;20463;-61
2022/05/31 05:35:54;;;;;;;1.50;1.33;;;20.60;45.70;;;;;;5092666;28;20024;-62
2022/05/31 05:38:20;;;;;;;3.38;1.50;;;20.60;45.70;;;;;;5091010;28;20409;-61
2022/05/31 05:40:46;;;;;;;3.35;1.70;;;20.60;45.60;;;;;;5075685;28;20048;-61
2022/05/31 05:43:12;;;;;;;1.75;1.33;;;20.60;45.60;;;;;;5094962;28;20103;-62
2022/05/31 05:45:37;;;;;;;2.20;1.40;;;20.60;45.70;;;;;;5096494;28;20419;-61
2022/05/31 05:48:04;;;;;;;2.10;1.60;;;20.60;45.60;;;;;;5096092;28;20012;-62
2022/05/31 05:50:30;;;;;;;3.25;1.70;;;20.60;45.50;;;;;;5098012;28;20023;-60
2022/05/31 05:52:59;;;;;;;2.30;1.67;;;20.70;45.40;;;;;;5099787;28;20008;-60
2022/05/31 05:55:24;;;;;;;1.80;1.40;;;20.70;45.40;;;;;;5101123;28;20028;-61
2022/05/31 05:57:50;;;;;;;1.70;1.55;;;20.70;45.30;;;;;;5082643;28;20019;-61
2022/05/31 06:00:16;;;;;;;2.85;1.40;;;20.80;45.30;;;;;;5100924;28;20037;-60
2022/05/31 06:02:58;;;;;;;2.35;1.30;;;20.80;45.10;;;;;;5100519;28;20157;-60
2022/05/31 06:05:27;;;;;;;2.35;1.60;;;20.90;45.00;;;;;;5082994;28;20032;-61
2022/05/31 06:08:01;;;;;;;1.73;1.42;;;20.90;44.80;;;;;;5097179;28;20340;-60
2022/05/31 06:11:07;;;;;;;2.00;1.38;;;21.00;44.80;;;;;;5096617;28;20024;-61
2022/05/31 06:13:39;;;;;;;2.30;1.60;;;21.00;44.70;;;;;;5073990;28;20048;-59
2022/05/31 06:16:07;;;;;;;2.83;1.77;;;21.10;44.50;;;;;;5098829;28;20021;-61
2022/05/31 06:18:37;;;;;;;3.28;1.95;;;21.10;44.50;;;;;;5096701;28;20107;-60
2022/05/31 06:21:05;;;;;;;2.70;1.45;;;21.10;44.50;;;;;;5096080;28;20035;-60
2022/05/31 06:23:32;;;;;;;1.77;1.30;;;21.10;44.40;;;;;;5094428;28;20040;-60
2022/05/31 06:25:58;;;;;;;2.78;1.50;;;21.20;44.40;;;;;;5095820;28;20027;-62
2022/05/31 06:28:24;;;;;;;2.88;1.40;;;21.20;44.30;;;;;;5096287;28;20149;-61
2022/05/31 06:30:50;;;;;;;4.38;1.70;;;21.20;44.30;;;;;;5094971;28;20012;-60
2022/05/31 06:33:16;;;;;;;1.70;1.50;;;21.20;44.30;;;;;;5096012;28;20479;-60
2022/05/31 06:35:43;;;;;;;2.08;1.50;;;21.20;44.20;;;;;;5095108;28;20020;-61
2022/05/31 06:38:09;;;;;;;2.10;1.58;;;21.20;44.20;;;;;;5093896;28;20020;-60
2022/05/31 06:40:36;;;;;;;1.75;1.35;;;21.30;44.20;;;;;;5094825;28;20069;-60
2022/05/31 06:43:02;;;;;;;2.78;1.38;;;21.30;44.10;;;;;;5093342;28;20099;-61
2022/05/31 06:45:28;;;;;;;1.50;1.30;;;21.30;44.00;;;;;;5092667;28;20039;-62
2022/05/31 06:47:53;;;;;;;2.33;1.35;;;21.40;44.00;;;;;;5094257;28;20008;-60
2022/05/31 06:50:19;;;;;;;2.13;1.40;;;21.40;44.00;;;;;;5092216;28;20024;-60
2022/05/31 06:58:14;;;;;;;1.55;1.23;;;21.40;43.80;;;;;;5094201;28;20167;-58
2022/05/31 07:00:40;;;;;;;2.15;1.40;;;21.40;43.80;;;;;;5092795;28;20017;-58
2022/05/31 07:03:06;;;;;;;4.38;1.75;;;21.40;43.90;;;;;;5093457;28;20355;-58
2022/05/31 07:05:32;;;;;;;2.22;1.73;;;21.40;44.40;;;;;;5093584;28;20386;-58
2022/05/31 07:07:58;;;;;;;1.83;1.50;;;21.40;43.90;;;;;;5093393;28;20031;-59
2022/05/31 07:10:24;;;;;;;1.92;1.27;;;21.40;43.90;;;;;;5091941;28;20012;-59
2022/05/31 07:12:50;;;;;;;2.13;1.38;;;21.40;43.90;;;;;;5092891;28;20016;-58
2022/05/31 07:15:16;;;;;;;12.23;2.20;;;21.40;43.90;;;;;;5075280;28;20165;-58
2022/05/31 07:17:44;;;;;;;23.27;2.50;;;21.50;44.50;;;;;;5095516;28;20012;-59
2022/05/31 07:20:11;;;;;;;12.75;2.35;;;21.60;44.70;;;;;;5095352;28;20030;-58
2022/05/31 07:22:37;;;;;;;10.95;2.95;;;21.80;44.80;;;;;;5094778;28;20558;-58
2022/05/31 07:25:03;;;;;;;12.98;2.40;;;22.00;44.60;;;;;;5094353;28;20046;-59
2022/05/31 07:27:29;;;;;;;7.68;3.25;;;22.10;44.40;;;;;;5094407;28;20096;-59
2022/05/31 07:29:55;;;;;;;19.50;3.58;;;22.20;44.40;;;;;;5092738;28;20103;-57
2022/05/31 07:32:20;;;;;;;12.00;3.05;;;22.30;44.70;;;;;;5094092;28;20031;-58
2022/05/31 07:34:48;;;;;;;34.00;3.53;;;22.30;44.50;;;;;;5092745;28;20024;-59
2022/05/31 07:37:14;;;;;;;22.33;3.42;;;22.30;44.30;;;;;;5093960;28;20032;-57
2022/05/31 07:39:40;;;;;;;13.88;3.25;;;22.30;44.60;;;;;;5094022;28;20018;-57
2022/05/31 07:42:06;;;;;;;12.63;3.85;;;22.40;44.50;;;;;;5092097;28;20016;-58
2022/05/31 07:44:32;;;;;;;21.67;3.10;;;22.50;44.60;;;;;;5075445;28;20074;-58
2022/05/31 07:46:59;;;;;;;18.38;3.00;;;22.50;44.60;;;;;;5092557;28;20419;-58
2022/05/31 07:49:26;;;;;;;15.57;3.13;;;22.50;45.00;;;;;;5093282;28;20091;-58
2022/05/31 07:51:53;;;;;;;17.25;3.83;;;22.60;44.60;;;;;;5093748;28;20022;-59
2022/05/31 07:54:18;;;;;;;17.35;4.00;;;22.60;44.80;;;;;;5091873;28;20027;-58
2022/05/31 07:56:44;;;;;;;17.27;3.63;;;22.60;44.60;;;;;;5093008;28;20065;-57
2022/05/31 07:59:10;;;;;;;17.38;3.22;;;22.60;44.20;;;;;;5093430;28;20035;-57
2022/05/31 08:01:36;;;;;;;19.83;3.55;;;22.60;44.80;;;;;;5091706;28;20019;-57
2022/05/31 08:04:02;;;;;;;14.32;3.03;;;22.70;44.40;;;;;;5092029;28;20398;-59
2022/05/31 08:06:29;;;;;;;20.50;3.50;;;22.70;44.20;;;;;;5074396;28;20024;-58
2022/05/31 08:08:57;;;;;;;16.42;3.53;;;22.70;44.50;;;;;;5093198;28;20078;-58
2022/05/31 08:11:28;;;;;;;18.73;4.10;;;22.60;44.70;;;;;;5093318;28;20016;-55
2022/05/31 08:13:55;;;;;;;14.98;3.42;;;22.50;44.30;;;;;;5092121;28;20023;-56
2022/05/31 08:16:22;;;;;;;19.45;3.00;;;22.50;43.20;;;;;;5092148;28;20012;-57
2022/05/31 08:18:50;;;;;;;15.60;3.47;;;22.40;43.50;;;;;;5091343;28;20009;-56
2022/05/31 08:21:21;;;;;;;15.48;3.92;;;22.40;42.80;;;;;;5090860;28;20012;-58
2022/05/31 08:23:47;;;;;;;23.27;3.80;;;22.50;43.00;;;;;;5092647;28;20032;-54
2022/05/31 08:26:13;;;;;;;24.55;3.50;;;22.70;43.10;;;;;;5092879;28;20016;-56
2022/05/31 08:28:39;;;;;;;30.33;4.05;;;22.70;43.60;;;;;;5092024;28;20382;-56
2022/05/31 08:31:10;;;;;;;35.40;4.20;;;22.80;44.40;;;;;;5091167;28;20020;-56
2022/05/31 08:33:36;;;;;;;25.42;4.53;;;22.90;44.20;;;;;;5091084;28;20407;-56
2022/05/31 08:36:02;;;;;;;18.92;3.75;;;22.90;42.80;;;;;;5092561;28;20089;-55
2022/05/31 08:38:28;;;;;;;31.48;3.50;;;23.00;43.40;;;;;;5090946;28;20076;-54
2022/05/31 08:41:02;;;;;;;15.55;3.45;;;23.00;42.70;;;;;;5091931;28;20451;-52
2022/05/31 08:43:50;;;;;;;18.95;2.83;;;23.00;43.00;;;;;;5091924;28;20021;-53
2022/05/31 08:47:01;;;;;;;8.90;2.30;;;23.10;43.00;;;;;;5090756;28;20017;-54
2022/05/31 08:52:26;;;;;;;13.05;2.92;;;23.20;42.60;;;;;;5036825;28;20115;-55
2022/05/31 08:57:53;;;;;;;8.80;2.50;;;23.10;42.50;;;;;;5049489;28;20099;-56
2022/05/31 09:00:20;;;;;;;11.50;2.42;;;23.20;41.40;;;;;;5033523;28;20107;-53
2022/05/31 09:02:55;;;;;;;8.32;2.10;;;23.20;42.00;;;;;;5032915;28;20021;-55
2022/05/31 09:05:32;;;;;;;15.77;2.45;;;23.20;41.60;;;;;;5016110;28;20542;-51
2022/05/31 09:08:16;;;;;;;9.45;2.03;;;23.20;41.90;;;;;;5031671;28;20036;-55
2022/05/31 09:11:14;;;;;;;15.85;2.42;;;23.20;40.70;;;;;;5032287;28;20033;-53
2022/05/31 09:14:01;;;;;;;27.92;2.90;;;23.10;40.80;;;;;;5032517;28;20102;-53
2022/05/31 09:16:57;;;;;;;27.15;4.35;;;23.10;41.00;;;;;;5051518;28;20053;-52
2022/05/31 09:19:49;;;;;;;30.10;3.75;;;23.20;40.70;;;;;;5052725;28;20122;-54
2022/05/31 09:22:15;;;;;;;33.85;4.25;;;23.20;41.90;;;;;;5056376;28;20064;-54
2022/05/31 09:24:44;;;;;;;20.23;5.10;;;23.30;41.40;;;;;;5095718;28;20035;-53
2022/05/31 09:27:14;;;;;;;18.80;3.33;;;23.30;40.80;;;;;;5095917;28;20382;-55
2022/05/31 09:29:50;;;;;;;18.92;3.70;;;23.30;40.70;;;;;;5096067;28;20047;-52
2022/05/31 09:32:34;;;;;;;32.83;3.50;;;23.30;41.00;;;;;;5094386;28;20039;-52
2022/05/31 09:35:15;;;;;;;16.98;2.70;;;23.20;40.60;;;;;;5095398;28;20083;-52
2022/05/31 09:37:46;;;;;;;12.98;2.45;;;23.30;41.40;;;;;;5094666;28;20471;-55
2022/05/31 09:40:23;;;;;;;15.45;3.10;;;23.30;41.10;;;;;;5094637;28;20055;-52
2022/05/31 09:43:19;;;;;;;12.90;2.55;;;23.40;40.90;;;;;;5093239;28;20523;-55
2022/05/31 09:45:54;;;;;;;11.27;2.75;;;23.30;41.10;;;;;;5093557;28;20100;-54
2022/05/31 09:48:20;;;;;;;19.52;2.45;;;23.40;40.50;;;;;;5077371;28;20026;-53
2022/05/31 09:50:46;;;;;;;9.20;2.30;;;23.50;40.00;;;;;;5094513;28;20016;-53
2022/05/31 09:59:05;;;;;;;31.58;3.53;;;23.60;40.30;;;;;;5094321;28;20127;-52
2022/05/31 10:01:31;;;;;;;20.27;3.13;;;23.50;38.80;;;;;;5094002;28;20016;-57
2022/05/31 10:04:07;;;;;;;32.17;4.03;;;23.40;38.60;;;;;;5095626;28;20015;-52
2022/05/31 10:06:33;;;;;;;24.63;3.40;;;23.40;38.10;;;;;;5078790;28;20017;-55
2022/05/31 10:09:14;;;;;;;22.70;3.00;;;23.40;38.40;;;;;;5096548;28;20012;-55
2022/05/31 10:11:48;;;;;;;21.73;2.67;;;23.40;38.70;;;;;;5095719;28;20022;-53
2022/05/31 10:14:24;;;;;;;21.30;2.90;;;23.40;38.90;;;;;;5095785;28;20025;-56
2022/05/31 10:16:49;;;;;;;13.65;2.80;;;23.50;39.30;;;;;;5096029;28;20018;-54
2022/05/31 10:19:26;;;;;;;13.52;3.13;;;23.60;39.10;;;;;;5094547;28;20057;-51
2022/05/31 10:21:52;;;;;;;14.77;2.55;;;23.50;39.60;;;;;;5094390;28;20413;-51
2022/05/31 10:24:23;;;;;;;17.23;2.88;;;23.60;39.80;;;;;;5095716;28;20009;-57
2022/05/31 10:27:13;;;;;;;17.95;2.78;;;23.50;39.50;;;;;;5094092;28;20133;-52
2022/05/31 10:29:48;;;;;;;16.00;2.53;;;23.60;39.80;;;;;;5094662;28;20016;-53
2022/05/31 10:32:50;;;;;;;15.85;2.35;;;23.60;40.00;;;;;;5078076;28;20016;-52
2022/05/31 10:35:33;;;;;;;15.85;2.28;;;23.60;40.30;;;;;;5052635;28;20498;-54
2022/05/31 10:37:59;;;;;;;22.88;3.17;;;23.60;40.00;;;;;;5052891;28;20033;-48
2022/05/31 10:40:26;;;;;;;15.73;2.95;;;23.70;40.80;;;;;;5052919;28;20028;-49
2022/05/31 10:42:54;;;;;;;20.75;2.50;;;23.70;40.80;;;;;;5035736;28;20017;-51
2022/05/31 10:45:22;;;;;;;39.25;3.83;;;23.70;40.80;;;;;;5034897;28;20104;-52
2022/05/31 10:47:48;;;;;;;18.40;2.75;;;23.80;40.40;;;;;;5050922;28;20016;-55
2022/05/31 10:50:14;;;;;;;15.52;1.98;;;23.50;39.00;;;;;;5034868;28;20029;-51
2022/05/31 10:52:58;;;;;;;6.88;1.40;;;23.20;34.80;;;;;;5035720;28;20103;-53
2022/05/31 10:55:34;;;;;;;9.52;1.67;;;22.80;33.10;;;;;;5036054;28;20032;-50
2022/05/31 10:58:03;;;;;;;5.53;1.50;;;22.70;33.70;;;;;;5051993;28;20531;-51
2022/05/31 11:00:52;;;;;;;8.07;1.65;;;22.90;34.30;;;;;;5051086;28;20034;-47
2022/05/31 11:03:38;;;;;;;15.07;1.75;;;23.20;34.90;;;;;;5050743;28;20023;-52
2022/05/31 11:06:15;;;;;;;9.27;1.33;;;23.50;34.80;;;;;;5050915;28;20146;-54
2022/05/31 11:12:12;;;;;;;7.22;1.98;;;23.90;35.80;;;;;;5087732;28;20344;-52
2022/05/31 11:14:44;;;;;;;12.85;1.67;;;24.20;36.40;;;;;;5076465;28;20095;-53
2022/05/31 11:17:16;;;;;;;9.80;1.88;;;24.40;37.00;;;;;;5093305;28;20023;-53
2022/05/31 11:20:20;;;;;;;15.13;1.95;;;24.60;37.50;;;;;;5091672;28;20012;-49
2022/05/31 11:22:59;;;;;;;19.48;2.55;;;24.70;38.00;;;;;;5091711;28;20085;-53
2022/05/31 11:25:43;;;;;;;9.45;1.95;;;24.80;39.20;;;;;;5092669;28;20424;-48
2022/05/31 11:28:21;;;;;;;20.95;2.08;;;24.90;39.60;;;;;;5092483;28;20027;-53
2022/05/31 11:31:24;;;;;;;21.90;2.83;;;25.00;39.90;;;;;;5091281;28;20069;-48
2022/05/31 11:33:55;;;;;;;13.30;2.25;;;25.10;40.50;;;;;;5092949;28;20079;-50
2022/05/31 11:36:26;;;;;;;17.83;2.80;;;25.10;40.90;;;;;;5092281;28;20028;-45
2022/05/31 11:39:23;;;;;;;22.60;2.55;;;25.20;40.80;;;;;;5090122;28;20020;-47
2022/05/31 11:42:10;;;;;;;25.38;4.50;;;24.80;37.80;;;;;;5090121;28;20107;-47
2022/05/31 11:45:00;;;;;;;31.40;4.32;;;24.10;33.30;;;;;;5091713;28;20062;-53
2022/05/31 11:47:33;;;;;;;26.58;4.72;;;24.10;34.10;;;;;;5091925;28;20027;-49
2022/05/31 11:50:14;;;;;;;20.80;3.42;;;24.10;34.90;;;;;;5092076;28;20024;-49
2022/05/31 11:52:42;;;;;;;16.02;3.30;;;24.20;35.60;;;;;;5092729;28;20019;-46
2022/05/31 11:55:28;;;;;;;23.83;3.08;;;24.20;35.60;;;;;;5090516;28;20124;-44
2022/05/31 11:57:56;;;;;;;17.08;3.50;;;24.30;35.80;;;;;;5091793;28;20077;-48
2022/05/31 12:00:22;;;;;;;18.50;2.97;;;24.40;35.80;;;;;;5092108;28;20043;-46
2022/05/31 12:03:09;;;;;;;18.85;3.17;;;24.50;36.30;;;;;;5091019;28;20091;-47
2022/05/31 12:05:38;;;;;;;23.77;3.13;;;24.60;36.70;;;;;;5090754;28;20024;-49
2022/05/31 12:08:17;;;;;;;20.83;3.03;;;24.60;36.20;;;;;;5090887;28;20016;-48
2022/05/31 12:10:54;;;;;;;20.55;2.50;;;24.60;36.40;;;;;;5090611;28;20073;-43
2022/05/31 12:13:20;;;;;;;10.15;2.92;;;24.60;37.10;;;;;;5090173;28;20004;-45
2022/05/31 12:15:48;;;;;;;20.20;2.80;;;24.70;37.50;;;;;;5090129;28;20668;-48
2022/05/31 12:18:23;;;;;;;17.60;2.67;;;24.70;37.30;;;;;;5091341;28;20391;-51
2022/05/31 12:21:01;;;;;;;16.55;2.40;;;24.70;37.20;;;;;;5091356;28;20052;-49
2022/05/31 12:24:00;;;;;;;22.48;2.90;;;24.70;37.00;;;;;;5057300;28;20039;-52
2022/05/31 12:26:45;;;;;;;18.58;2.47;;;24.80;37.40;;;;;;5091179;28;20035;-58
2022/05/31 12:29:34;;;;;;;26.35;2.55;;;25.00;37.70;;;;;;5092059;28;20077;-52
2022/05/31 12:32:35;;;;;;;22.63;3.85;;;24.80;37.00;;;;;;5075266;28;20039;-51
2022/05/31 12:35:03;;;;;;;;;;;23.80;33.40;;;;;;5049216;28;20029;-53
2022/05/31 12:37:50;;;;;;;16.23;2.88;;;23.70;35.10;;;;;;5049497;28;19904;-55
2022/05/31 12:40:26;;;;;;;19.65;3.22;;;24.00;35.00;;;;;;5049000;28;20021;-54
2022/05/31 12:42:52;;;;;;;16.05;2.85;;;24.10;35.50;;;;;;5049077;28;20079;-44
2022/05/31 12:45:33;;;;;;;13.35;2.88;;;24.20;35.30;;;;;;5049557;28;20021;-50
2022/05/31 12:48:23;;;;;;;14.57;2.88;;;24.30;35.60;;;;;;5048924;28;20045;-46
2022/05/31 12:51:10;;;;;;;17.08;2.42;;;24.30;35.60;;;;;;5031783;28;20033;-41
2022/05/31 12:53:39;;;;;;;32.53;3.05;;;24.30;35.50;;;;;;5049023;28;20079;-42
2022/05/31 12:56:28;;;;;;;19.27;2.83;;;24.30;35.20;;;;;;5049240;28;20133;-42
2022/05/31 12:58:55;;;;;;;14.07;2.60;;;24.50;35.60;;;;;;5048761;28;20071;-43
2022/05/31 13:01:24;;;;;;;11.73;2.22;;;24.50;35.50;;;;;;5032343;28;20021;-43
2022/05/31 13:03:50;;;;;;;16.83;2.97;;;24.60;35.90;;;;;;5048630;28;20127;-42
2022/05/31 13:06:28;;;;;;;14.98;2.05;;;24.70;36.20;;;;;;5048390;28;20074;-43
2022/05/31 13:09:31;;;;;;;10.48;1.98;;;24.90;36.10;;;;;;5069117;28;20032;-41
2022/05/31 13:20:47;;;;;;;20.52;2.40;;;24.90;38.10;;;;;;5091453;28;20444;-46
2022/05/31 13:23:20;;;;;;;17.33;2.50;;;24.60;36.60;;;;;;5073965;28;20115;-42
2022/05/31 13:25:45;;;;;;;13.52;1.98;;;24.40;37.40;;;;;;5090655;28;20483;-46
2022/05/31 13:28:35;;;;;;;15.05;2.15;;;24.30;36.00;;;;;;5090526;28;20031;-48
2022/05/31 13:31:24;;;;;;;15.27;2.80;;;24.20;37.00;;;;;;5092112;28;20031;-44
2022/05/31 13:34:01;;;;;;;12.27;2.20;;;24.10;37.30;;;;;;5074517;28;20099;-44
2022/05/31 13:36:29;;;;;;;12.13;2.42;;;24.00;36.30;;;;;;5092604;28;20036;-42